DW5072 Weather Reports


time (UTC)temp
C
wind
direction
speed
KPH
gust
KPH
rain 1hr
cm
rain 24hr
cm
rain mn
cm
humidity
%
barometer
mb
20200226021229 3 242 0.0 4.8 0.18 1.04 0.38 91 1004.7
20200226020726 3 164 0.0 0.0 0.18 1.04 0.38 91 1004.7
20200226020241 3 164 0.0 0.0 0.18 1.04 0.38 91 1004.7
20200226015748 3 164 0.0 0.0 0.18 1.04 0.38 90 1004.7
20200226015236 3 164 0.0 0.0 0.18 1.04 0.38 90 1004.5
20200226014738 3 164 0.0 11.3 0.18 1.04 0.38 90 1004.6
20200226014640 3 164 0.0 0.0 0.18 1.04 0.38 90 1005.2
20200226014252 3 164 0.0 11.3 0.18 1.04 0.38 89 1004.3
20200226013753 3 164 0.0 11.3 0.18 1.04 0.38 89 1004.3
20200226013239 3 302 0.0 22.5 0.15 1.02 0.36 89 1004.1
20200226013132 3 76 0.0 1.6 0.15 1.02 0.36 89 1005.1
20200226012736 4 13 3.2 22.5 0.13 0.99 0.33 89 1004.2
20200226012225 4 264 3.2 19.3 0.03 0.89 0.23 89 1004.5
20200226011729 4 254 1.6 14.5 0.00 0.86 0.20 90 1003.8
20200226011717 4 253 0.0 16.1 0.00 0.86 0.20 90 1004.3
20200226011232 4 254 1.6 14.5 0.03 0.86 0.20 90 1003.4
20200226010733 4 299 1.6 14.5 0.05 0.86 0.20 90 1003.5
20200226010235 4 78 1.6 11.3 0.08 0.86 0.20 90 1003.7
20200226005743 4 263 1.6 11.3 0.08 0.86 0.20 90 1003.6
20200226005244 4 215 1.6 8.0 0.15 0.86 0.20 89 1003.8
20200226004736 4 286 1.6 8.0 0.20 0.86 0.20 89 1004.0
20200226004244 4 245 1.6 17.7 0.20 0.86 0.20 88 1003.8
20200226003717 4 53 1.6 17.7 0.20 0.86 0.20 88 1004.2
20200226003227 5 242 3.2 19.3 0.20 0.86 0.20 88 1004.2
20200226003216 4 258 4.8 16.1 0.20 0.86 0.20 88 1005.1
20200226002740 5 283 3.2 19.3 0.20 0.86 0.20 87 1004.3
20200226002235 5 267 4.8 19.3 0.20 0.86 0.20 87 1004.3
20200226001733 5 306 3.2 24.1 0.18 0.84 0.18 86 1004.3
20200226001630 5 284 4.8 14.5 0.20 0.86 0.20 86 1005.0
20200226001237 5 310 1.6 24.1 0.15 0.81 0.15 86 1004.5
20200226000730 6 273 3.2 24.1 0.15 0.79 0.15 86 1004.5
20200226000247 6 289 4.8 40.2 0.13 0.79 0.13 85 1004.5
20200225235747 6 264 6.4 40.2 0.10 0.76 0.10 84 1004.2
20200225235240 7 286 6.4 40.2 0.05 0.71 0.05 83 1004.1
20200225234750 7 290 1.6 17.7 0.00 0.66 0.00 82 1003.1
20200225234242 7 273 1.6 9.7 0.00 0.66 0.00 82 1002.7
20200225233727 7 242 0.0 9.7 0.00 0.66 0.00 82 1002.7
20200225233254 7 26 0.0 17.7 0.00 0.66 0.00 82 1002.8
20200225232735 7 244 1.6 17.7 0.03 0.66 0.00 82 1002.9
20200225232245 7 302 1.6 17.7 0.03 0.66 0.00 82 1003.0
20200225231737 7 226 0.0 12.9 0.03 0.66 0.00 83 1003.0
20200225231228 7 159 0.0 12.9 0.03 0.66 0.00 83 1003.0
20200225230745 7 62 1.6 12.9 0.03 0.66 0.00 83 1003.1
20200225230239 7 250 1.6 19.3 0.03 0.66 0.66 83 1003.2
20200225225739 7 236 3.2 19.3 0.03 0.66 0.66 83 1003.2
20200225225232 6 269 3.2 19.3 0.03 0.66 0.66 84 1003.3
20200225224806 6 257 0.0 9.7 0.03 0.66 0.66 87 1004.2
20200225224735 6 321 1.6 16.1 0.03 0.66 0.66 86 1003.4
20200225224254 6 331 1.6 16.1 0.03 0.66 0.66 87 1003.5
20200225223723 6 325 3.2 16.1 0.03 0.66 0.66 88 1003.7
20200225223245 6 245 1.6 8.0 0.00 0.64 0.64 89 1003.6
20200225223154 6 244 4.8 14.5 0.03 0.66 0.66 89 1004.4
20200225222753 6 264 0.0 12.9 0.00 0.64 0.64 90 1003.7
20200225222242 6 273 3.2 12.9 0.00 0.64 0.64 91 1003.9
20200225221729 6 259 1.6 4.8 0.00 0.64 0.64 91 1003.9
20200225221624 6 330 4.8 12.9 0.00 0.64 0.64 91 1004.7
20200225221246 6 322 0.0 4.8 0.00 0.64 0.64 91 1004.0
20200225220743 6 322 0.0 6.4 0.00 0.64 0.64 92 1004.1
20200225220219 6 240 1.6 6.4 0.00 0.64 0.64 92 1003.9
20200225215738 6 33 1.6 6.4 0.00 0.64 0.64 92 1003.8
20200225215243 6 314 0.0 0.0 0.00 0.64 0.64 92 1003.8
20200225214804 6 28 0.0 1.6 0.00 0.64 0.64 92 1004.6
20200225214725 6 28 0.0 4.8 0.00 0.64 0.64 92 1003.8
20200225214234 6 26 0.0 4.8 0.00 0.64 0.64 92 1003.8
20200225213736 6 313 0.0 4.8 0.00 0.64 0.64 92 1004.0
20200225213247 6 334 0.0 1.6 0.00 0.64 0.64 92 1004.0
20200225212721 6 334 0.0 1.6 0.00 0.64 0.64 92 1004.0
20200225212238 6 334 0.0 0.0 0.00 0.64 0.64 92 1004.0
20200225211732 6 334 0.0 0.0 0.00 0.64 0.64 92 1004.0
20200225211624 6 334 0.0 0.0 0.00 0.64 0.64 92 1004.8
20200225211239 6 334 0.0 0.0 0.00 0.64 0.64 92 1004.1
20200225210742 6 334 0.0 0.0 0.00 0.64 0.64 91 1004.3
20200225210251 6 334 0.0 0.0 0.00 0.64 0.64 91 1004.5
20200225205734 6 334 0.0 0.0 0.00 0.64 0.64 91 1004.5
20200225205228 6 334 0.0 0.0 0.00 0.64 0.64 91 1004.5
20200225204756 6 334 0.0 1.6 0.00 0.64 0.64 91 1004.3
20200225204246 6 334 0.0 1.6 0.00 0.64 0.64 91 1004.3
20200225203746 6 334 0.0 1.6 0.00 0.64 0.64 91 1004.5
20200225203234 6 334 0.0 0.0 0.00 0.64 0.64 91 1004.3
20200225203210 6 334 0.0 0.0 0.00 0.64 0.64 91 1005.0
20200225202724 6 334 0.0 0.0 0.00 0.64 0.64 91 1004.3
20200225202238 6 334 0.0 0.0 0.00 0.64 0.64 91 1004.5
20200225201735 6 334 0.0 0.0 0.00 0.64 0.64 91 1004.5
20200225201227 6 334 0.0 0.0 0.00 0.64 0.64 90 1004.8
20200225200748 6 334 0.0 1.6 0.00 0.64 0.64 90 1004.8
20200225200241 6 334 0.0 3.2 0.00 0.64 0.64 90 1004.9
20200225195736 6 334 0.0 3.2 0.00 0.64 0.64 90 1004.9
20200225195235 6 334 0.0 3.2 0.00 0.64 0.64 90 1005.0
20200225194733 6 293 0.0 3.2 0.00 0.64 0.64 90 1005.0
20200225194241 6 293 0.0 3.2 0.03 0.64 0.64 91 1005.2
20200225193732 6 296 0.0 3.2 0.03 0.64 0.64 91 1005.2
20200225193258 6 295 0.0 3.2 0.03 0.64 0.64 91 1005.2
20200225193104 6 296 0.0 3.2 0.03 0.64 0.64 91 1005.8
20200225192758 6 242 0.0 3.2 0.03 0.64 0.64 91 1005.3
20200225192227 6 289 0.0 6.4 0.03 0.64 0.64 91 1005.2
20200225191738 6 289 0.0 12.9 0.03 0.64 0.64 92 1005.2
20200225191645 6 289 0.0 4.8 0.03 0.64 0.64 92 1005.7
20200225191234 6 300 1.6 12.9 0.03 0.64 0.64 92 1005.3
20200225190728 6 263 1.6 12.9 0.03 0.64 0.64 92 1005.3
20200225190233 6 285 1.6 22.5 0.03 0.64 0.64 92 1005.4
20200225185732 6 0 3.2 22.5 0.03 0.64 0.64 93 1005.6
20200225185237 6 64 4.8 22.5 0.03 0.64 0.64 93 1005.8
20200225184929 6 286 4.8 16.1 0.03 0.64 0.64 94 1006.4
20200225184738 7 248 1.6 4.8 0.03 0.64 0.64 94 1005.8
20200225184241 6 271 0.0 0.0 0.00 0.61 0.61 94 1005.7
20200225183727 6 271 0.0 0.0 0.00 0.61 0.61 94 1005.6
20200225183257 6 271 0.0 0.0 0.00 0.61 0.61 94 1006.2
20200225183232 6 271 0.0 0.0 0.00 0.61 0.61 94 1005.6
20200225182744 6 271 0.0 3.2 0.00 0.61 0.61 94 1005.7
20200225182248 6 271 0.0 3.2 0.00 0.61 0.61 94 1005.8
20200225181732 7 271 0.0 3.2 0.00 0.61 0.61 94 1005.8
20200225181646 6 271 0.0 3.2 0.00 0.61 0.61 94 1006.4
20200225181233 7 271 0.0 1.6 0.00 0.61 0.61 94 1005.9
20200225180729 7 286 0.0 0.0 0.00 0.61 0.61 94 1005.8
20200225180246 7 286 0.0 0.0 0.00 0.61 0.61 94 1005.9
20200225175746 7 286 0.0 0.0 0.00 0.61 0.61 94 1006.1
20200225175237 7 286 0.0 0.0 0.00 0.61 0.61 94 1005.9
20200225174756 7 286 0.0 0.0 0.00 0.61 0.61 94 1006.1
20200225174241 7 286 0.0 0.0 0.03 0.61 0.61 94 1005.9
20200225173735 7 286 0.0 0.0 0.03 0.61 0.61 94 1006.1
20200225173242 7 286 0.0 0.0 0.05 0.61 0.61 94 1006.0
20200225172738 7 286 0.0 0.0 0.05 0.61 0.61 94 1006.0
20200225172232 7 286 0.0 0.0 0.05 0.61 0.61 94 1006.1
20200225171738 7 286 0.0 0.0 0.08 0.61 0.61 94 1006.0
20200225171647 7 286 0.0 0.0 0.08 0.61 0.61 94 1006.7
20200225171238 7 286 0.0 3.2 0.08 0.61 0.61 94 1006.1
20200225170732 7 286 0.0 4.8 0.08 0.61 0.61 94 1006.1
20200225170243 7 286 0.0 4.8 0.08 0.61 0.61 94 1006.1
20200225165746 7 168 0.0 4.8 0.08 0.61 0.61 94 1006.1
20200225165234 7 333 0.0 8.0 0.08 0.61 0.61 94 1006.1
20200225164738 7 264 0.0 8.0 0.05 0.61 0.61 94 1005.9
20200225164235 7 264 0.0 8.0 0.05 0.61 0.61 94 1006.0
20200225163744 7 11 0.0 3.2 0.05 0.58 0.58 94 1005.9
20200225163246 7 11 0.0 3.2 0.05 0.58 0.58 94 1005.8
20200225162732 7 32 0.0 1.6 0.05 0.58 0.58 94 1005.8
20200225162242 7 266 0.0 0.0 0.00 0.53 0.53 94 1005.8
20200225161731 7 266 0.0 0.0 0.00 0.53 0.53 94 1005.7
20200225161228 7 266 0.0 0.0 0.00 0.53 0.53 93 1005.9
20200225160733 7 265 0.0 0.0 0.00 0.53 0.53 93 1005.9
20200225160245 7 265 0.0 0.0 0.00 0.53 0.53 93 1006.0
20200225160010 7 265 0.0 0.0 0.00 0.53 0.53 93 1006.6
20200225155726 7 266 0.0 0.0 0.00 0.53 0.53 93 1006.1
20200225155239 7 266 0.0 0.0 0.00 0.53 0.53 93 1006.2
20200225154737 7 265 0.0 0.0 0.00 0.53 0.53 93 1006.4
20200225154232 7 266 0.0 0.0 0.00 0.53 0.53 93 1006.5
20200225153739 8 266 0.0 0.0 0.00 0.53 0.53 93 1006.5
20200225153223 8 266 0.0 0.0 0.00 0.53 0.53 93 1006.6
20200225152739 8 265 0.0 0.0 0.00 0.53 0.53 93 1006.6
20200225152249 8 266 0.0 1.6 0.00 0.53 0.53 93 1006.8
20200225151728 8 266 0.0 4.8 0.03 0.53 0.53 93 1006.9
20200225151232 8 265 0.0 4.8 0.05 0.53 0.53 93 1007.0
20200225150726 8 266 0.0 0.0 0.05 0.53 0.53 93 1007.1
20200225150243 8 58 0.0 0.0 0.05 0.53 0.53 93 1007.1
20200225145755 8 58 0.0 0.0 0.05 0.53 0.53 93 1007.1
20200225145256 8 57 0.0 0.0 0.05 0.53 0.53 92 1007.1
20200225144738 8 57 0.0 0.0 0.08 0.53 0.53 92 1007.2
20200225144249 8 58 0.0 0.0 0.08 0.53 0.53 92 1007.3
20200225143740 8 58 0.0 0.0 0.08 0.53 0.53 92 1007.3
20200225143240 8 58 0.0 0.0 0.13 0.53 0.53 92 1007.4
20200225142737 8 58 0.0 4.8 0.15 0.53 0.53 92 1007.4
20200225142254 8 58 0.0 4.8 0.15 0.53 0.53 92 1007.3
20200225141751 8 57 0.0 4.8 0.18 0.51 0.51 92 1007.5
20200225141237 8 237 0.0 0.0 0.18 0.51 0.51 92 1007.5
20200225140735 8 238 0.0 0.0 0.20 0.51 0.51 92 1007.4
20200225140236 8 238 0.0 0.0 0.23 0.51 0.51 92 1007.4
20200225135734 8 238 0.0 0.0 0.23 0.48 0.48 91 1007.5
20200225135234 8 238 0.0 0.0 0.25 0.48 0.48 91 1007.6
20200225134738 8 238 0.0 0.0 0.23 0.46 0.46 91 1007.6
20200225134245 8 238 0.0 0.0 0.25 0.46 0.46 91 1007.5
20200225133754 8 237 0.0 0.0 0.25 0.43 0.43 91 1007.6
20200225133238 8 238 0.0 0.0 0.23 0.43 0.43 91 1007.6
20200225132742 8 238 0.0 0.0 0.23 0.41 0.38 90 1007.6
20200225132255 8 237 0.0 0.0 0.23 0.38 0.38 90 1007.7
20200225131837 8 238 0.0 0.0 0.20 0.33 0.33 90 1007.8
20200225131234 8 238 0.0 0.0 0.20 0.33 0.30 90 1008.0
20200225130738 8 238 0.0 0.0 0.18 0.30 0.30 89 1008.0
20200225130251 8 237 0.0 0.0 0.15 0.25 0.25 89 1008.0
20200225125801 8 237 0.0 0.0 0.15 0.25 0.23 89 1008.0
20200225125249 8 238 0.0 0.0 0.13 0.23 0.23 89 1008.1
20200225124728 8 237 0.0 0.0 0.13 0.23 0.23 88 1008.2
20200225124231 8 238 0.0 0.0 0.10 0.20 0.20 88 1008.3
20200225123743 8 237 0.0 0.0 0.10 0.18 0.18 88 1008.4
20200225123239 8 238 0.0 0.0 0.08 0.15 0.15 87 1008.4
20200225122740 8 238 0.0 4.8 0.05 0.15 0.15 87 1008.5
20200225122234 8 238 0.0 4.8 0.08 0.15 0.15 87 1008.6
20200225121720 8 238 0.0 1.6 0.05 0.13 0.13 86 1008.7
20200225121237 8 250 0.0 4.8 0.05 0.13 0.13 86 1008.6
20200225120729 8 249 0.0 4.8 0.05 0.10 0.10 86 1008.8
20200225120301 8 249 0.0 9.7 0.05 0.10 0.10 86 1008.9
20200225115732 8 232 0.0 9.7 0.05 0.10 0.10 86 1008.9
20200225115234 8 283 0.0 9.7 0.05 0.10 0.10 85 1009.0
20200225114737 8 277 0.0 6.4 0.05 0.10 0.10 85 1009.0
20200225114232 8 277 1.6 6.4 0.03 0.08 0.08 85 1009.1
20200225113731 8 230 0.0 11.3 0.03 0.08 0.08 85 1009.2
20200225113221 8 63 0.0 11.3 0.05 0.08 0.08 85 1009.2
20200225112745 8 244 0.0 6.4 0.05 0.05 0.05 86 1009.3
20200225112223 8 336 1.6 6.4 0.05 0.05 0.05 86 1009.3
20200225111740 8 336 1.6 6.4 0.05 0.05 0.05 86 1009.4
20200225111239 8 110 0.0 6.4 0.05 0.05 0.05 86 1009.4
20200225110747 8 234 0.0 6.4 0.05 0.05 0.05 86 1009.5
20200225110227 8 115 0.0 8.0 0.05 0.05 0.05 85 1009.8
20200225105731 8 113 0.0 11.3 0.05 0.05 0.05 85 1009.7
20200225105239 8 326 1.6 11.3 0.05 0.05 0.05 84 1009.9
20200225104734 8 326 1.6 11.3 0.05 0.05 0.05 84 1009.9
20200225104244 8 244 0.0 4.8 0.05 0.05 0.05 84 1009.8
20200225103725 8 284 0.0 9.7 0.05 0.05 0.05 83 1009.9
20200225103257 8 283 1.6 12.9 0.05 0.05 0.05 82 1010.0
20200225102730 8 283 1.6 12.9 0.03 0.03 0.03 81 1010.0
20200225102241 8 351 1.6 19.3 0.00 0.00 0.00 81 1010.1
20200225101745 8 272 1.6 19.3 0.00 0.00 0.00 82 1010.0
20200225101237 8 248 1.6 3.2 0.00 0.00 0.00 82 1010.2
20200225100733 8 94 0.0 0.0 0.00 0.00 0.00 82 1010.2
20200225100246 8 94 0.0 0.0 0.00 0.00 0.00 82 1010.1
20200225095752 8 94 0.0 0.0 0.00 0.00 0.00 81 1010.1
20200225095232 8 94 0.0 0.0 0.00 0.00 0.00 81 1010.1
20200225094743 8 94 0.0 0.0 0.00 0.00 0.00 80 1010.1
20200225094254 8 94 0.0 0.0 0.00 0.00 0.00 80 1010.2
20200225093730 8 94 0.0 0.0 0.00 0.00 0.00 79 1010.2
20200225093251 8 94 0.0 0.0 0.00 0.00 0.00 79 1010.2
20200225092741 8 94 0.0 0.0 0.00 0.00 0.00 79 1010.3
20200225092252 9 94 0.0 0.0 0.00 0.00 0.00 78 1010.4
20200225091753 9 94 0.0 0.0 0.00 0.00 0.00 77 1010.3
20200225091229 9 94 0.0 0.0 0.00 0.00 0.00 77 1010.3
20200225090744 9 94 0.0 4.8 0.00 0.00 0.00 75 1010.4
20200225090248 9 94 0.0 4.8 0.00 0.00 0.00 74 1010.4
20200225085730 9 94 0.0 4.8 0.00 0.00 0.00 73 1010.5
20200225085219 9 53 0.0 0.0 0.00 0.00 0.00 71 1010.5
20200225084739 9 53 0.0 0.0 0.00 0.00 0.00 71 1010.5
20200225084246 9 53 0.0 0.0 0.00 0.00 0.00 71 1010.4
20200225083746 9 53 0.0 0.0 0.00 0.00 0.00 71 1010.5
20200225083240 9 53 0.0 0.0 0.00 0.00 0.00 71 1010.5
20200225082743 9 53 0.0 1.6 0.00 0.00 0.00 71 1010.5
20200225082230 9 53 0.0 1.6 0.00 0.00 0.00 71 1010.5
20200225081746 9 53 0.0 1.6 0.00 0.00 0.00 71 1010.4
20200225081253 9 53 0.0 1.6 0.00 0.00 0.00 71 1010.5
20200225080737 9 53 0.0 1.6 0.00 0.00 0.00 71 1010.4
20200225080245 9 53 0.0 1.6 0.00 0.00 0.00 72 1010.5
20200225075730 9 53 0.0 1.6 0.00 0.00 0.00 72 1010.5
20200225075227 9 53 0.0 1.6 0.00 0.00 0.00 72 1010.4
20200225074735 8 52 0.0 1.6 0.00 0.00 0.00 73 1010.4
20200225074228 8 53 0.0 1.6 0.00 0.00 0.00 75 1010.4
20200225073727 8 53 0.0 1.6 0.00 0.00 0.00 77 1010.5
20200225073244 7 53 0.0 1.6 0.00 0.00 0.00 77 1010.6
20200225072730 7 15 0.0 0.0 0.00 0.00 0.00 78 1010.7
20200225072230 7 14 0.0 0.0 0.00 0.00 0.00 78 1010.7
20200225071745 7 15 0.0 0.0 0.00 0.00 0.00 78 1010.7
20200225071243 7 355 0.0 0.0 0.00 0.00 0.00 78 1010.8
20200225070753 7 355 0.0 0.0 0.00 0.00 0.00 78 1010.9
20200225070246 7 355 0.0 0.0 0.00 0.00 0.00 78 1011.2
20200225065735 7 355 0.0 0.0 0.00 0.00 0.00 78 1011.1
20200225065231 7 355 0.0 0.0 0.00 0.00 0.00 77 1011.2
20200225064744 7 355 0.0 0.0 0.00 0.00 0.00 77 1011.2
20200225064248 7 355 0.0 0.0 0.00 0.00 0.00 77 1011.1
20200225063751 7 355 0.0 0.0 0.00 0.00 0.00 76 1011.2
20200225063248 7 355 0.0 0.0 0.00 0.00 0.00 76 1011.4
20200225063025 7 355 0.0 0.0 0.00 0.00 0.00 76 1011.5
20200225062730 7 355 0.0 0.0 0.00 0.00 0.00 76 1011.2
20200225062234 7 355 0.0 0.0 0.00 0.00 0.00 76 1011.4
20200225061727 7 355 0.0 0.0 0.00 0.00 0.00 76 1011.4
20200225061521 7 355 0.0 0.0 0.00 0.00 0.00 76 1011.7
20200225061234 7 355 0.0 0.0 0.00 0.00 0.00 76 1011.4
20200225060753 7 355 0.0 1.6 0.00 0.00 0.00 76 1011.4
20200225060250 7 355 0.0 1.6 0.00 0.00 0.00 76 1011.4
20200225060005 7 355 0.0 1.6 0.00 0.00 0.00 76 1011.7
20200225055744 7 355 0.0 1.6 0.00 0.00 0.00 76 1011.4
20200225055245 7 355 0.0 0.0 0.00 0.00 0.00 76 1011.2
20200225054737 7 355 0.0 0.0 0.00 0.00 0.00 76 1011.5
20200225054240 7 355 0.0 0.0 0.00 0.00 0.00 77 1011.5
20200225053744 7 355 0.0 0.0 0.00 0.00 0.00 77 1011.5
20200225053246 7 355 0.0 0.0 0.00 0.00 0.00 77 1011.4
20200225052741 7 355 0.0 0.0 0.00 0.00 0.00 77 1011.5
20200225052244 7 355 0.0 0.0 0.00 0.00 0.00 77 1011.5
20200225051733 7 355 0.0 0.0 0.00 0.00 0.00 76 1011.4
20200225051229 7 355 0.0 0.0 0.00 0.00 0.00 76 1011.4
20200225050747 7 355 0.0 0.0 0.00 0.00 0.00 76 1011.4
20200225050238 7 355 0.0 0.0 0.00 0.00 0.00 76 1011.5
20200225045741 7 355 0.0 0.0 0.00 0.00 0.00 76 1011.4
20200225045255 7 355 0.0 0.0 0.00 0.00 0.00 75 1011.4
20200225044732 7 355 0.0 0.0 0.00 0.00 0.00 75 1011.5
20200225044243 7 355 0.0 0.0 0.00 0.00 0.00 75 1011.4
20200225043749 7 355 0.0 0.0 0.00 0.00 0.00 74 1011.5
20200225043232 8 355 0.0 0.0 0.00 0.00 0.00 74 1011.5
20200225042739 8 355 0.0 0.0 0.00 0.00 0.00 73 1011.4
20200225042239 8 355 0.0 0.0 0.00 0.00 0.00 73 1011.4
20200225041754 8 355 0.0 0.0 0.00 0.00 0.00 72 1011.5
20200225041243 8 355 0.0 0.0 0.00 0.00 0.00 72 1011.5
20200225040747 8 355 0.0 0.0 0.00 0.00 0.00 71 1011.5
20200225040249 8 355 0.0 0.0 0.00 0.00 0.00 71 1011.5
20200225035733 8 355 0.0 0.0 0.00 0.00 0.00 71 1011.5
20200225035228 8 355 0.0 0.0 0.00 0.00 0.00 71 1011.5
20200225034732 8 355 0.0 0.0 0.00 0.00 0.00 71 1011.5
20200225034243 8 355 0.0 0.0 0.00 0.00 0.00 70 1011.5
20200225033738 8 355 0.0 0.0 0.00 0.00 0.00 70 1011.5
20200225033241 8 355 0.0 0.0 0.00 0.00 0.00 70 1011.5
20200225032735 8 355 0.0 0.0 0.00 0.00 0.00 71 1011.6
20200225032251 8 355 0.0 0.0 0.00 0.00 0.00 70 1011.7
20200225031721 8 355 0.0 0.0 0.00 0.00 0.00 71 1011.7
20200225031230 8 355 0.0 1.6 0.00 0.00 0.00 70 1011.7
20200225030748 8 355 0.0 1.6 0.00 0.00 0.00 71 1011.7
20200225030253 8 355 0.0 1.6 0.00 0.00 0.00 71 1011.7
20200225025724 8 355 0.0 0.0 0.00 0.00 0.00 71 1011.7
20200225025253 8 355 0.0 1.6 0.00 0.00 0.00 71 1011.8
20200225024734 8 355 0.0 1.6 0.00 0.00 0.00 71 1011.9
20200225024251 8 355 0.0 1.6 0.00 0.00 0.00 71 1011.8
20200225023749 8 355 0.0 1.6 0.00 0.00 0.00 71 1011.8
20200225023229 8 355 0.0 1.6 0.00 0.00 0.00 71 1011.9
20200225022749 8 355 0.0 1.6 0.00 0.00 0.00 71 1012.0
20200225022235 8 355 0.0 1.6 0.00 0.00 0.00 72 1012.0
20200225021748 8 355 0.0 1.6 0.00 0.00 0.00 73 1012.0